Time;durP1;ratioP1;P1;durP2;ratioP2;P2;SDS_P1;SDS_P2;PMS_P1;PMS_P2;Temp;Humidity;BMP_temperature;BMP_pressure;BME280_temperature;BME280_humidity;BME280_pressure;Samples;Min_cycle;Max_cycle;Signal;HPM_P1;HPM_P2
2021/01/05 00:01:10;;;;;;;55.60;26.98;;;3.30;99.90;;;;;;5026915;28;20257;-53
2021/01/05 00:03:35;;;;;;;57.80;26.40;;;3.30;99.90;;;;;;5029463;28;20205;-56
2021/01/05 00:06:01;;;;;;;57.20;25.80;;;3.20;99.90;;;;;;5029744;28;20214;-58
2021/01/05 00:08:27;;;;;;;65.93;26.87;;;3.30;99.90;;;;;;5030480;28;20237;-57
2021/01/05 00:10:52;;;;;;;54.40;26.57;;;3.20;99.90;;;;;;5030587;28;20232;-56
2021/01/05 00:13:18;;;;;;;51.67;25.70;;;3.30;99.90;;;;;;5014540;28;20186;-54
2021/01/05 00:15:43;;;;;;;56.37;25.70;;;3.30;99.90;;;;;;5022660;28;20728;-60
2021/01/05 00:18:09;;;;;;;51.60;26.53;;;3.30;99.90;;;;;;5029176;28;20189;-52
2021/01/05 00:20:35;;;;;;;55.30;26.43;;;3.30;99.90;;;;;;5015295;28;20203;-56
2021/01/05 00:23:00;;;;;;;57.33;26.47;;;3.40;99.90;;;;;;5028231;28;20206;-56
2021/01/05 00:25:27;;;;;;;58.33;28.40;;;3.40;99.90;;;;;;5016898;28;20214;-55
2021/01/05 00:27:53;;;;;;;48.33;26.50;;;3.40;99.90;;;;;;5020712;28;20684;-55
2021/01/05 00:30:22;;;;;;;49.33;26.60;;;3.30;99.90;;;;;;5024935;28;20216;-55
2021/01/05 00:32:49;;;;;;;51.35;26.55;;;3.30;99.90;;;;;;5023822;28;20206;-56
2021/01/05 00:35:27;;;;;;;58.08;27.98;;;3.40;99.90;;;;;;5028256;28;20218;-55
2021/01/05 00:37:53;;;;;;;56.88;27.00;;;3.40;99.90;;;;;;5018980;28;20193;-57
2021/01/05 00:40:21;;;;;;;60.13;28.20;;;3.30;99.90;;;;;;5010343;28;20242;-57
2021/01/05 00:42:47;;;;;;;53.58;26.73;;;3.30;99.90;;;;;;5013941;28;20190;-57
2021/01/05 00:45:35;;;;;;;65.20;28.07;;;3.30;99.90;;;;;;5011733;28;20191;-57
2021/01/05 00:48:02;;;;;;;57.10;26.05;;;3.30;99.90;;;;;;5013502;28;20462;-57
2021/01/05 00:50:27;;;;;;;49.33;25.65;;;3.30;99.90;;;;;;5022157;28;20213;-56
2021/01/05 00:52:53;;;;;;;55.37;26.47;;;3.20;99.90;;;;;;5022275;28;20178;-55
2021/01/05 00:55:19;;;;;;;51.30;26.10;;;3.20;99.90;;;;;;5023499;28;20195;-56
2021/01/05 00:57:45;;;;;;;47.40;26.30;;;3.20;99.90;;;;;;5011657;28;21074;-55
2021/01/05 01:00:21;;;;;;;50.67;25.13;;;3.20;99.90;;;;;;5024589;28;20516;-56
2021/01/05 01:02:49;;;;;;;54.85;25.23;;;3.10;99.90;;;;;;5016695;28;20237;-57
2021/01/05 01:05:15;;;;;;;56.10;26.85;;;3.10;99.90;;;;;;5010908;28;20191;-57
2021/01/05 01:07:40;;;;;;;58.05;27.67;;;3.10;99.90;;;;;;5009745;28;20213;-55
2021/01/05 01:10:07;;;;;;;59.30;28.33;;;3.20;99.90;;;;;;5021492;28;20235;-53
2021/01/05 01:12:32;;;;;;;64.78;26.38;;;3.10;99.90;;;;;;5024518;28;20182;-58
2021/01/05 01:14:58;;;;;;;48.27;27.00;;;3.20;99.90;;;;;;5029479;28;20878;-54
2021/01/05 01:17:25;;;;;;;57.50;27.20;;;3.20;99.90;;;;;;5022734;28;20269;-56
2021/01/05 01:19:51;;;;;;;55.83;25.88;;;3.20;99.90;;;;;;5023812;28;20189;-55
2021/01/05 01:22:19;;;;;;;58.03;28.20;;;3.30;99.90;;;;;;5016139;28;20186;-58
2021/01/05 01:24:45;;;;;;;53.45;26.10;;;3.30;99.90;;;;;;5029771;28;20265;-57
2021/01/05 01:27:11;;;;;;;52.17;26.17;;;3.30;99.90;;;;;;5026285;28;20213;-57
2021/01/05 01:29:36;;;;;;;57.60;26.57;;;3.30;99.90;;;;;;5027641;28;20209;-57
2021/01/05 01:32:02;;;;;;;47.77;24.80;;;3.30;99.90;;;;;;5014388;28;20641;-58
2021/01/05 01:34:28;;;;;;;51.50;26.50;;;3.30;99.90;;;;;;5029808;28;20181;-57
2021/01/05 01:37:16;;;;;;;55.07;26.53;;;3.30;99.90;;;;;;5014378;28;20187;-58
2021/01/05 01:39:43;;;;;;;54.67;27.58;;;3.40;99.90;;;;;;5010390;28;20317;-58
2021/01/05 01:42:09;;;;;;;51.35;26.10;;;3.40;99.90;;;;;;5009683;28;20175;-58
2021/01/05 01:44:40;;;;;;;53.17;23.98;;;3.40;99.90;;;;;;5027436;28;20762;-57
2021/01/05 01:47:24;;;;;;;57.70;26.38;;;3.40;99.90;;;;;;5041044;28;20218;-57
2021/01/05 01:50:12;;;;;;;51.60;26.42;;;3.30;99.90;;;;;;5019349;28;20229;-53
2021/01/05 01:52:47;;;;;;;50.33;24.20;;;3.30;99.90;;;;;;5022428;28;20197;-56
2021/01/05 01:55:40;;;;;;;50.70;26.17;;;3.30;99.90;;;;;;5023156;28;20284;-56
2021/01/05 01:58:45;;;;;;;46.67;25.92;;;3.40;99.90;;;;;;5014319;28;20190;-54
2021/01/05 02:01:26;;;;;;;54.40;26.70;;;3.40;99.90;;;;;;5016607;28;20186;-58
2021/01/05 02:04:00;;;;;;;53.95;25.45;;;3.40;99.90;;;;;;5015231;28;20201;-57
2021/01/05 02:06:47;;;;;;;53.47;26.02;;;3.30;99.90;;;;;;5014855;28;20196;-57
2021/01/05 02:09:37;;;;;;;50.83;26.50;;;3.30;99.90;;;;;;5029117;28;20182;-55
2021/01/05 02:12:19;;;;;;;53.58;24.70;;;3.30;99.90;;;;;;5018169;28;20178;-57
2021/01/05 02:14:51;;;;;;;59.13;24.58;;;3.30;99.90;;;;;;5029015;28;20193;-58
2021/01/05 02:17:28;;;;;;;50.47;24.30;;;3.30;99.90;;;;;;5023022;28;20180;-57
2021/01/05 02:20:01;;;;;;;51.08;25.40;;;3.30;99.90;;;;;;5023940;28;20263;-58
2021/01/05 02:22:42;;;;;;;51.67;25.20;;;3.30;99.90;;;;;;5027469;28;20185;-58
2021/01/05 02:25:20;;;;;;;49.90;23.83;;;3.30;99.90;;;;;;5015053;28;20185;-57
2021/01/05 02:27:51;;;;;;;49.13;23.42;;;3.30;99.90;;;;;;5019306;28;20565;-56
2021/01/05 02:30:25;;;;;;;53.42;25.23;;;3.30;99.90;;;;;;5022182;28;20190;-57
2021/01/05 02:33:18;;;;;;;54.10;26.20;;;3.30;99.90;;;;;;5027331;28;20272;-55
2021/01/05 02:35:47;;;;;;;48.17;23.85;;;3.30;99.90;;;;;;5017013;28;20190;-57
2021/01/05 02:38:43;;;;;;;48.95;24.05;;;3.20;99.90;;;;;;5011815;28;20183;-55
2021/01/05 02:41:46;;;;;;;53.88;26.25;;;3.20;99.90;;;;;;5024786;28;20236;-56
2021/01/05 02:44:44;;;;;;;50.15;23.52;;;3.30;99.90;;;;;;5024925;28;20220;-58
2021/01/05 02:47:24;;;;;;;45.92;25.08;;;3.20;99.90;;;;;;5018566;28;20221;-58
2021/01/05 02:50:23;;;;;;;46.50;24.42;;;3.30;99.90;;;;;;5020998;28;20222;-58
2021/01/05 02:53:20;;;;;;;52.33;24.83;;;3.20;99.90;;;;;;5022074;28;20205;-58
2021/01/05 02:56:17;;;;;;;46.17;23.02;;;3.30;99.90;;;;;;5013143;28;20194;-55
2021/01/05 02:59:16;;;;;;;47.60;24.30;;;3.30;99.90;;;;;;5016797;28;20175;-56
2021/01/05 03:02:12;;;;;;;45.38;24.27;;;3.30;99.90;;;;;;5021619;28;20684;-58
2021/01/05 03:04:37;;;;;;;45.17;22.52;;;3.30;99.90;;;;;;5022126;28;20277;-54
2021/01/05 03:07:11;;;;;;;46.97;23.63;;;3.40;99.90;;;;;;5009327;28;20290;-55
2021/01/05 03:09:59;;;;;;;47.03;23.48;;;3.40;99.90;;;;;;5021088;28;20182;-56
2021/01/05 03:12:32;;;;;;;38.28;22.83;;;3.30;99.90;;;;;;5010450;28;20191;-57
2021/01/05 03:15:25;;;;;;;43.47;22.77;;;3.30;99.90;;;;;;5014498;28;20179;-57
2021/01/05 03:18:09;;;;;;;51.88;24.95;;;3.40;99.90;;;;;;5014296;28;20264;-54
2021/01/05 03:20:44;;;;;;;44.47;23.10;;;3.30;99.90;;;;;;5030757;28;20637;-57
2021/01/05 03:23:13;;;;;;;45.50;21.60;;;3.30;99.90;;;;;;5026468;28;20196;-59
2021/01/05 03:25:42;;;;;;;41.83;23.65;;;3.40;99.90;;;;;;5013258;28;20179;-56
2021/01/05 03:28:11;;;;;;;45.25;24.17;;;3.40;99.90;;;;;;5029469;28;20202;-53
2021/01/05 03:30:39;;;;;;;42.50;22.33;;;3.50;99.90;;;;;;5013260;28;20654;-55
2021/01/05 03:33:05;;;;;;;41.50;23.35;;;3.50;99.90;;;;;;5017169;28;20270;-56
2021/01/05 03:35:32;;;;;;;44.33;22.77;;;3.50;99.90;;;;;;5018814;28;20182;-55
2021/01/05 03:37:58;;;;;;;48.35;23.98;;;3.50;99.90;;;;;;5013631;28;20211;-58
2021/01/05 03:40:24;;;;;;;41.05;22.38;;;3.50;99.90;;;;;;5013250;28;20298;-59
2021/01/05 03:42:50;;;;;;;48.15;22.38;;;3.60;99.90;;;;;;5014276;28;20207;-54
2021/01/05 03:45:19;;;;;;;40.97;22.50;;;3.50;99.90;;;;;;5016459;28;20241;-57
2021/01/05 03:47:45;;;;;;;40.95;21.92;;;3.50;99.90;;;;;;5031008;28;20240;-56
2021/01/05 03:50:12;;;;;;;37.93;21.90;;;3.40;99.90;;;;;;5027191;28;20186;-57
2021/01/05 03:52:37;;;;;;;41.80;21.90;;;3.50;99.90;;;;;;5027344;28;20189;-55
2021/01/05 03:55:03;;;;;;;49.30;23.10;;;3.50;99.90;;;;;;5016160;28;20626;-57
2021/01/05 03:57:29;;;;;;;44.83;21.70;;;3.60;99.90;;;;;;5012084;28;20253;-57
2021/01/05 03:59:54;;;;;;;46.27;23.70;;;3.60;99.90;;;;;;5015305;28;20195;-56
2021/01/05 04:02:20;;;;;;;38.83;21.90;;;3.50;99.90;;;;;;5028844;28;20221;-57
2021/01/05 04:04:46;;;;;;;44.57;23.07;;;3.50;99.90;;;;;;5021408;28;20531;-58
2021/01/05 04:07:11;;;;;;;39.00;21.20;;;3.40;99.90;;;;;;5011738;28;20207;-55
2021/01/05 04:09:37;;;;;;;47.83;22.37;;;3.40;99.90;;;;;;5016509;28;20171;-57
2021/01/05 04:12:03;;;;;;;44.53;22.70;;;3.40;99.90;;;;;;5025976;28;20189;-58
2021/01/05 04:14:28;;;;;;;43.10;22.63;;;3.30;99.90;;;;;;5026548;28;20519;-56
2021/01/05 04:16:54;;;;;;;45.53;24.67;;;3.30;99.90;;;;;;5014985;28;20190;-58
2021/01/05 04:19:19;;;;;;;40.80;21.87;;;3.30;99.90;;;;;;5022764;28;20523;-55
2021/01/05 04:21:49;;;;;;;42.77;21.50;;;3.30;99.90;;;;;;5027460;28;20186;-55
2021/01/05 04:24:15;;;;;;;49.08;24.10;;;3.40;99.90;;;;;;5021270;28;20938;-58
2021/01/05 04:26:40;;;;;;;43.37;21.80;;;3.40;99.90;;;;;;5025816;28;20213;-56
2021/01/05 04:29:06;;;;;;;46.83;22.67;;;3.40;99.90;;;;;;5018643;28;20262;-60
2021/01/05 04:31:43;;;;;;;41.03;21.20;;;3.40;99.90;;;;;;5018503;28;20188;-58
2021/01/05 04:34:10;;;;;;;39.78;22.88;;;3.40;99.90;;;;;;5010733;28;20195;-58
2021/01/05 04:36:35;;;;;;;48.35;22.70;;;3.30;99.90;;;;;;5011040;28;20180;-57
2021/01/05 04:39:02;;;;;;;40.93;19.23;;;3.40;99.90;;;;;;5024234;28;20212;-60
2021/01/05 04:41:31;;;;;;;37.05;21.90;;;3.40;99.90;;;;;;5030340;28;20453;-54
2021/01/05 04:44:03;;;;;;;40.72;21.33;;;3.40;99.90;;;;;;5011069;28;20190;-56
2021/01/05 04:46:50;;;;;;;42.38;22.17;;;3.40;99.90;;;;;;5020820;28;20218;-57
2021/01/05 04:49:27;;;;;;;44.33;21.42;;;3.30;99.90;;;;;;5018172;28;20195;-59
2021/01/05 04:52:09;;;;;;;43.35;21.50;;;3.40;99.90;;;;;;5029588;28;20643;-58
2021/01/05 04:54:43;;;;;;;42.28;21.67;;;3.40;99.90;;;;;;5014371;28;20313;-58
2021/01/05 04:57:19;;;;;;;41.80;22.77;;;3.40;99.90;;;;;;5041800;28;20270;-56
2021/01/05 04:59:57;;;;;;;44.70;21.55;;;3.40;99.90;;;;;;5016656;28;20206;-58
2021/01/05 05:02:28;;;;;;;37.70;21.40;;;3.40;99.90;;;;;;5011857;28;20193;-57
2021/01/05 05:04:59;;;;;;;43.05;22.10;;;3.40;99.90;;;;;;5017034;28;20198;-57
2021/01/05 05:07:30;;;;;;;37.58;21.20;;;3.40;99.90;;;;;;5028817;28;20728;-56
2021/01/05 05:10:05;;;;;;;41.50;22.98;;;3.40;99.90;;;;;;5026113;28;20177;-56
2021/01/05 05:12:56;;;;;;;42.25;20.98;;;3.30;99.90;;;;;;5007715;28;20243;-58
2021/01/05 05:15:36;;;;;;;39.80;20.75;;;3.30;99.90;;;;;;5006514;28;20262;-58
2021/01/05 05:18:06;;;;;;;39.30;21.55;;;3.40;99.90;;;;;;5011821;28;20743;-58
2021/01/05 05:21:03;;;;;;;44.67;21.90;;;3.40;99.90;;;;;;5005237;28;20210;-58
2021/01/05 05:23:43;;;;;;;43.65;22.08;;;3.30;99.90;;;;;;5020382;28;20211;-57
2021/01/05 05:26:22;;;;;;;37.42;21.00;;;3.20;99.90;;;;;;5001233;28;20218;-57
2021/01/05 05:29:02;;;;;;;40.25;20.25;;;3.30;99.90;;;;;;5001543;28;20459;-60
2021/01/05 05:31:32;;;;;;;34.85;19.83;;;3.20;99.90;;;;;;5002002;28;20576;-59
2021/01/05 05:34:12;;;;;;;38.50;21.75;;;3.20;99.90;;;;;;5007618;28;20274;-58
2021/01/05 05:36:47;;;;;;;39.78;19.17;;;3.30;99.90;;;;;;5002023;28;20199;-56
2021/01/05 05:39:22;;;;;;;32.22;18.85;;;3.40;99.90;;;;;;5022742;28;20200;-59
2021/01/05 05:42:07;;;;;;;38.92;21.45;;;3.30;99.90;;;;;;5026596;28;20276;-58
2021/01/05 05:44:49;;;;;;;36.38;19.38;;;3.40;99.90;;;;;;5009657;28;20195;-59
2021/01/05 05:47:39;;;;;;;35.42;20.45;;;3.30;99.90;;;;;;5019236;28;20206;-54
2021/01/05 05:50:08;;;;;;;34.80;18.15;;;3.30;99.90;;;;;;5031367;28;20185;-58
2021/01/05 05:52:35;;;;;;;37.10;20.10;;;3.30;99.90;;;;;;5020125;28;20175;-59
2021/01/05 05:55:06;;;;;;;36.10;19.10;;;3.30;99.90;;;;;;5020100;28;20185;-58
2021/01/05 05:57:45;;;;;;;38.42;21.42;;;3.30;99.90;;;;;;5025213;28;20178;-58
2021/01/05 06:00:25;;;;;;;36.28;18.13;;;3.30;99.90;;;;;;5019404;28;20185;-58
2021/01/05 06:02:50;;;;;;;38.55;19.13;;;3.30;99.90;;;;;;5014356;28;20260;-56
2021/01/05 06:05:32;;;;;;;35.47;19.13;;;3.30;99.90;;;;;;5021236;28;20191;-58
2021/01/05 06:07:58;;;;;;;29.63;17.55;;;3.30;99.90;;;;;;5026672;28;20691;-58
2021/01/05 06:10:24;;;;;;;31.80;18.33;;;3.30;99.90;;;;;;5028900;28;20174;-58
2021/01/05 06:12:50;;;;;;;37.45;22.50;;;3.30;99.90;;;;;;5020801;28;20269;-56
2021/01/05 06:15:16;;;;;;;31.77;17.30;;;3.30;99.90;;;;;;5028960;28;20324;-57
2021/01/05 06:17:42;;;;;;;27.67;17.50;;;3.30;99.90;;;;;;5024587;28;21006;-58
2021/01/05 06:20:08;;;;;;;36.17;18.70;;;3.30;99.90;;;;;;5011749;28;20449;-57
2021/01/05 06:22:34;;;;;;;35.22;17.33;;;3.30;99.90;;;;;;5020085;28;20194;-58
2021/01/05 06:25:00;;;;;;;35.90;18.93;;;3.20;99.90;;;;;;5009665;28;20520;-56
2021/01/05 06:27:25;;;;;;;29.83;16.90;;;3.10;99.90;;;;;;5016711;28;20220;-58
2021/01/05 06:29:51;;;;;;;29.70;17.53;;;3.20;99.90;;;;;;5009598;28;20539;-58
2021/01/05 06:32:16;;;;;;;38.70;19.40;;;3.10;99.90;;;;;;5022300;28;20183;-57
2021/01/05 06:34:42;;;;;;;37.40;19.03;;;3.10;99.90;;;;;;5028248;28;20179;-58
2021/01/05 06:37:08;;;;;;;32.33;17.07;;;3.20;99.90;;;;;;5028960;28;20503;-58
2021/01/05 06:39:33;;;;;;;33.30;19.23;;;3.20;99.90;;;;;;5012129;28;20750;-59
2021/01/05 06:41:59;;;;;;;32.20;18.33;;;3.20;99.90;;;;;;5008897;28;20241;-59
2021/01/05 06:44:24;;;;;;;32.03;16.90;;;3.20;99.90;;;;;;5009364;28;20286;-58
2021/01/05 06:46:51;;;;;;;30.50;16.33;;;3.20;99.90;;;;;;5022000;28;20213;-57
2021/01/05 06:49:17;;;;;;;31.85;17.10;;;3.20;99.90;;;;;;5031842;28;20190;-57
2021/01/05 06:51:43;;;;;;;28.73;17.63;;;3.20;99.90;;;;;;5030428;28;20309;-58
2021/01/05 06:54:08;;;;;;;31.97;16.50;;;3.30;99.90;;;;;;5033001;28;20917;-58
2021/01/05 06:56:54;;;;;;;40.27;24.90;;;3.30;99.90;;;;;;5031456;28;20190;-58
2021/01/05 06:59:21;;;;;;;29.08;19.15;;;3.20;99.90;;;;;;5017718;28;20449;-58
2021/01/05 07:02:06;;;;;;;34.40;19.55;;;3.20;99.90;;;;;;5016643;28;20182;-57
2021/01/05 07:04:32;;;;;;;35.25;19.88;;;3.20;99.90;;;;;;5030583;28;20277;-56
2021/01/05 07:06:59;;;;;;;27.40;16.40;;;3.20;99.90;;;;;;5019114;28;20217;-56
2021/01/05 07:09:25;;;;;;;28.30;16.52;;;3.30;99.90;;;;;;5028234;28;20225;-58
2021/01/05 07:11:51;;;;;;;31.33;16.58;;;3.30;99.90;;;;;;5018740;28;20186;-57
2021/01/05 07:14:20;;;;;;;28.30;17.02;;;3.30;99.90;;;;;;5029962;28;20205;-60
2021/01/05 07:16:46;;;;;;;28.00;16.60;;;3.30;99.90;;;;;;5018236;28;20268;-57
2021/01/05 07:19:12;;;;;;;28.70;15.80;;;3.30;99.90;;;;;;5017088;28;20186;-57
2021/01/05 07:21:38;;;;;;;30.75;18.23;;;3.30;99.90;;;;;;5026274;28;20232;-56
2021/01/05 07:24:04;;;;;;;27.40;15.60;;;3.20;99.90;;;;;;5031458;28;20643;-56
2021/01/05 07:26:34;;;;;;;27.13;16.55;;;3.20;99.90;;;;;;5028540;28;20211;-51
2021/01/05 07:29:00;;;;;;;30.45;17.50;;;3.20;99.90;;;;;;5035089;28;20717;-55
2021/01/05 07:31:26;;;;;;;32.50;16.10;;;3.20;99.90;;;;;;5024562;28;20189;-56
2021/01/05 07:33:52;;;;;;;26.43;15.07;;;3.20;99.90;;;;;;5025330;28;20182;-56
2021/01/05 07:36:24;;;;;;;27.73;16.53;;;3.30;99.90;;;;;;5029942;28;20437;-54
2021/01/05 07:38:50;;;;;;;27.83;16.13;;;3.30;99.90;;;;;;5015011;28;20194;-56
2021/01/05 07:41:15;;;;;;;31.33;16.17;;;3.40;99.90;;;;;;5028818;28;20689;-56
2021/01/05 07:43:41;;;;;;;31.70;16.07;;;3.40;99.90;;;;;;5031004;28;20179;-56
2021/01/05 07:46:06;;;;;;;22.63;15.03;;;3.40;99.90;;;;;;5022493;28;20306;-56
2021/01/05 07:48:32;;;;;;;27.10;15.53;;;3.40;99.90;;;;;;5014925;28;20684;-54
2021/01/05 07:50:58;;;;;;;28.60;14.47;;;3.40;99.90;;;;;;5024862;28;20187;-57
2021/01/05 07:53:23;;;;;;;26.03;14.50;;;3.30;99.90;;;;;;5027123;28;20717;-56
2021/01/05 07:55:49;;;;;;;27.20;15.60;;;3.30;99.90;;;;;;5018558;28;20679;-55
2021/01/05 07:58:15;;;;;;;29.77;15.33;;;3.20;99.90;;;;;;5028697;28;20187;-53
2021/01/05 08:00:40;;;;;;;29.20;15.53;;;3.20;99.90;;;;;;5023893;28;20194;-54
2021/01/05 08:03:06;;;;;;;25.30;14.57;;;3.20;99.90;;;;;;5024914;28;20186;-54
2021/01/05 08:05:32;;;;;;;29.70;14.57;;;3.10;99.90;;;;;;5011063;28;20197;-55
2021/01/05 08:07:58;;;;;;;27.20;14.63;;;3.10;99.90;;;;;;5013129;28;20211;-53
2021/01/05 08:10:27;;;;;;;23.67;13.20;;;3.10;99.90;;;;;;5028129;28;20432;-52
2021/01/05 08:12:53;;;;;;;27.17;14.50;;;3.10;99.90;;;;;;5011628;28;20272;-55
2021/01/05 08:15:24;;;;;;;25.70;15.23;;;3.00;99.90;;;;;;5010281;28;20625;-56
2021/01/05 08:17:50;;;;;;;22.90;14.15;;;3.10;99.90;;;;;;5010727;28;20229;-53
2021/01/05 08:20:18;;;;;;;23.63;14.50;;;3.10;99.90;;;;;;5011162;28;20312;-54
2021/01/05 08:22:44;;;;;;;24.00;13.80;;;3.00;99.90;;;;;;5015787;28;20195;-57
2021/01/05 08:25:10;;;;;;;23.98;13.48;;;3.10;99.90;;;;;;5029660;28;20260;-54
2021/01/05 08:27:35;;;;;;;26.23;13.77;;;3.10;99.90;;;;;;5016283;28;20206;-56
2021/01/05 08:30:02;;;;;;;23.47;13.80;;;3.10;99.90;;;;;;5017635;28;20617;-52
2021/01/05 08:32:28;;;;;;;24.83;12.82;;;3.20;99.90;;;;;;5027729;28;20181;-56
2021/01/05 08:34:53;;;;;;;22.00;13.27;;;3.20;99.90;;;;;;5046162;28;20243;-56
2021/01/05 08:37:19;;;;;;;21.70;13.40;;;3.10;99.90;;;;;;5015477;28;20190;-54
2021/01/05 08:39:44;;;;;;;23.63;13.40;;;3.10;99.90;;;;;;5026488;28;20555;-55
2021/01/05 08:42:10;;;;;;;20.97;13.27;;;3.10;99.90;;;;;;5025256;28;20256;-55
2021/01/05 08:44:36;;;;;;;25.10;13.50;;;3.10;99.90;;;;;;5010243;28;20184;-54
2021/01/05 08:47:03;;;;;;;23.73;12.60;;;3.00;99.90;;;;;;5013818;28;20328;-54
2021/01/05 08:49:30;;;;;;;23.63;13.50;;;3.10;99.90;;;;;;5020885;28;20177;-52
2021/01/05 08:51:56;;;;;;;21.88;14.02;;;3.10;99.90;;;;;;5026884;28;20186;-54
2021/01/05 08:54:22;;;;;;;26.70;12.90;;;3.10;99.90;;;;;;5035538;28;20179;-52
2021/01/05 08:56:55;;;;;;;23.00;13.50;;;3.10;99.90;;;;;;5028709;28;20449;-56
2021/01/05 08:59:22;;;;;;;22.92;13.13;;;3.10;99.90;;;;;;5016714;28;20441;-54
2021/01/05 09:01:48;;;;;;;23.63;13.10;;;3.20;99.90;;;;;;5017455;28;20186;-54
2021/01/05 09:04:13;;;;;;;24.35;13.40;;;3.20;99.90;;;;;;5026804;28;20220;-55
2021/01/05 09:06:39;;;;;;;25.97;14.40;;;3.20;99.90;;;;;;5017038;28;20241;-57
2021/01/05 09:09:05;;;;;;;27.00;14.33;;;3.20;99.90;;;;;;5023512;28;20209;-57
2021/01/05 09:11:31;;;;;;;22.98;14.15;;;3.20;99.90;;;;;;5015735;28;20177;-58
2021/01/05 09:13:56;;;;;;;21.40;13.03;;;3.30;99.90;;;;;;5029136;28;20239;-57
2021/01/05 09:16:25;;;;;;;23.07;14.37;;;3.30;99.90;;;;;;5016499;28;20193;-55
2021/01/05 09:18:52;;;;;;;24.98;15.93;;;3.40;99.90;;;;;;5013518;28;20722;-63
2021/01/05 09:21:22;;;;;;;27.77;14.25;;;3.50;99.90;;;;;;5020309;28;20194;-62
2021/01/05 09:23:52;;;;;;;21.67;14.23;;;3.60;98.70;;;;;;5028566;28;20228;-63
2021/01/05 09:26:23;;;;;;;23.58;15.32;;;3.60;95.60;;;;;;5021379;28;20179;-63
2021/01/05 09:28:50;;;;;;;23.13;14.30;;;3.60;93.80;;;;;;5020471;28;20973;-63
2021/01/05 09:31:16;;;;;;;22.42;14.88;;;3.60;94.10;;;;;;5028998;28;20166;-63
2021/01/05 09:33:42;;;;;;;23.48;13.10;;;3.60;90.90;;;;;;5028861;28;20171;-63
2021/01/05 09:36:09;;;;;;;23.03;13.77;;;3.60;91.50;;;;;;5028814;28;20174;-63
2021/01/05 09:38:37;;;;;;;23.63;13.27;;;3.60;89.50;;;;;;5028269;28;20430;-63
2021/01/05 09:41:02;;;;;;;22.35;12.18;;;3.60;89.60;;;;;;5028797;28;20218;-63
2021/01/05 09:43:30;;;;;;;25.40;13.97;;;3.50;89.10;;;;;;5012007;28;20728;-63
2021/01/05 09:45:55;;;;;;;21.63;12.23;;;3.40;81.30;;;;;;5009427;28;20246;-64
2021/01/05 09:48:21;;;;;;;22.33;13.63;;;3.30;87.80;;;;;;5017754;28;20738;-63
2021/01/05 09:50:47;;;;;;;24.80;13.47;;;3.30;91.20;;;;;;5019564;28;20197;-64
2021/01/05 09:53:14;;;;;;;22.20;13.02;;;3.30;91.80;;;;;;5032051;28;20183;-64
2021/01/05 09:55:40;;;;;;;20.73;12.50;;;3.20;94.00;;;;;;5036969;28;20700;-63
2021/01/05 09:58:06;;;;;;;21.08;12.73;;;3.20;95.60;;;;;;5015121;28;20190;-63
2021/01/05 10:00:32;;;;;;;22.80;12.85;;;3.20;96.80;;;;;;5028712;28;20216;-63
2021/01/05 10:02:58;;;;;;;23.53;12.90;;;3.20;98.30;;;;;;5028146;28;20236;-63
2021/01/05 10:05:23;;;;;;;22.00;12.97;;;3.20;99.90;;;;;;5011055;28;20666;-63
2021/01/05 10:07:49;;;;;;;24.23;13.10;;;3.20;99.90;;;;;;5028576;28;20205;-64
2021/01/05 10:10:24;;;;;;;23.47;13.37;;;3.10;99.90;;;;;;5028389;28;20178;-64
2021/01/05 10:12:50;;;;;;;20.85;12.73;;;3.20;99.90;;;;;;5028597;28;20809;-63
2021/01/05 10:15:18;;;;;;;21.90;12.13;;;3.10;99.90;;;;;;5017106;28;20636;-63
2021/01/05 10:17:44;;;;;;;21.08;12.40;;;3.10;99.90;;;;;;5027837;28;20181;-64
2021/01/05 10:20:12;;;;;;;19.83;12.30;;;3.00;99.90;;;;;;5022014;28;20734;-64
2021/01/05 10:22:38;;;;;;;19.38;11.20;;;3.00;99.90;;;;;;5024760;28;20181;-63
2021/01/05 10:25:06;;;;;;;18.45;11.90;;;2.90;99.90;;;;;;5030414;28;20182;-64
2021/01/05 10:27:32;;;;;;;20.90;11.95;;;2.90;99.90;;;;;;5030727;28;20212;-63
2021/01/05 10:29:58;;;;;;;19.37;11.40;;;2.90;99.90;;;;;;5029417;28;20197;-64
2021/01/05 10:32:24;;;;;;;19.27;11.77;;;2.90;99.90;;;;;;5026703;28;20567;-64
2021/01/05 10:34:50;;;;;;;19.33;11.23;;;2.90;99.90;;;;;;5026458;28;20437;-64
2021/01/05 10:37:16;;;;;;;22.60;13.10;;;2.90;99.90;;;;;;5023331;28;20632;-64
2021/01/05 10:39:42;;;;;;;18.73;12.27;;;2.90;99.90;;;;;;5022267;28;21021;-64
2021/01/05 10:42:08;;;;;;;23.70;12.63;;;2.90;99.90;;;;;;5003840;28;20182;-64
2021/01/05 10:44:34;;;;;;;24.50;12.60;;;2.90;99.90;;;;;;5008087;28;20448;-64
2021/01/05 10:47:05;;;;;;;20.85;13.05;;;2.90;99.90;;;;;;5004211;28;20210;-64
2021/01/05 10:49:31;;;;;;;22.30;13.48;;;2.90;99.90;;;;;;5003926;28;20236;-64
2021/01/05 10:51:58;;;;;;;17.80;11.73;;;2.90;99.90;;;;;;5027937;28;20640;-64
2021/01/05 10:54:29;;;;;;;21.70;12.90;;;3.00;99.90;;;;;;5037836;28;20177;-64
2021/01/05 10:57:03;;;;;;;21.00;11.77;;;3.00;99.90;;;;;;5035402;28;20193;-64
2021/01/05 10:59:30;;;;;;;20.08;12.98;;;2.80;99.90;;;;;;5028071;28;20487;-63
2021/01/05 11:01:56;;;;;;;21.33;12.73;;;2.80;99.90;;;;;;5029927;28;20209;-64
2021/01/05 11:04:26;;;;;;;21.08;11.82;;;2.80;99.90;;;;;;5021791;28;20185;-64
2021/01/05 11:06:58;;;;;;;20.75;12.48;;;2.90;99.90;;;;;;5015931;28;20205;-65
2021/01/05 11:09:24;;;;;;;21.27;12.02;;;2.90;99.90;;;;;;5026596;28;20222;-64
2021/01/05 11:11:56;;;;;;;23.35;13.25;;;2.90;99.90;;;;;;5021263;28;20179;-64
2021/01/05 11:14:22;;;;;;;23.10;12.85;;;3.00;99.90;;;;;;5019541;28;20177;-64
2021/01/05 11:16:48;;;;;;;26.30;13.03;;;3.00;99.90;;;;;;5015476;28;20191;-64
2021/01/05 11:19:14;;;;;;;21.88;12.98;;;3.00;99.90;;;;;;5018829;28;20500;-65
2021/01/05 11:21:40;;;;;;;25.50;14.80;;;3.10;99.90;;;;;;5017414;28;20653;-64
2021/01/05 11:24:06;;;;;;;21.73;12.60;;;3.20;99.90;;;;;;5017550;28;20201;-68
2021/01/05 11:26:36;;;;;;;18.85;12.00;;;3.30;99.90;;;;;;5027063;28;20492;-68
2021/01/05 11:29:03;;;;;;;18.55;12.40;;;3.30;98.40;;;;;;5024040;28;20836;-67
2021/01/05 11:31:29;;;;;;;20.70;11.82;;;3.30;97.80;;;;;;5024613;28;20171;-67
2021/01/05 11:33:55;;;;;;;20.52;13.05;;;3.30;95.20;;;;;;5026386;28;20193;-67
2021/01/05 11:36:26;;;;;;;17.43;11.27;;;3.30;92.90;;;;;;5016357;28;20709;-67
2021/01/05 11:38:53;;;;;;;22.40;12.75;;;3.30;91.10;;;;;;5021635;28;20269;-67
2021/01/05 11:41:30;;;;;;;18.85;11.60;;;3.20;93.20;;;;;;5025740;28;20218;-67
2021/01/05 11:43:57;;;;;;;22.15;12.43;;;3.10;94.50;;;;;;5016995;28;20652;-67
2021/01/05 11:46:24;;;;;;;20.05;11.77;;;3.00;93.80;;;;;;5021733;28;20547;-69
2021/01/05 11:48:50;;;;;;;17.58;11.68;;;2.90;95.50;;;;;;5020610;28;20192;-66
2021/01/05 11:51:22;;;;;;;16.73;10.75;;;2.90;96.90;;;;;;5029626;28;20182;-66
2021/01/05 11:53:48;;;;;;;18.35;10.52;;;2.80;98.10;;;;;;5032465;28;20181;-72
2021/01/05 11:56:27;;;;;;;16.97;10.83;;;2.80;99.80;;;;;;5022521;28;20273;-70
2021/01/05 11:58:53;;;;;;;19.70;11.88;;;2.70;99.90;;;;;;5025267;28;20212;-72
2021/01/05 12:01:20;;;;;;;20.50;12.43;;;2.70;83.90;;;;;;5030897;28;21008;-72
2021/01/05 12:03:45;;;;;;;21.27;12.13;;;2.70;90.20;;;;;;5023056;28;20177;-70
2021/01/05 12:06:17;;;;;;;18.43;11.87;;;2.70;92.70;;;;;;5023299;28;20188;-71
2021/01/05 12:08:43;;;;;;;16.95;11.60;;;2.70;99.90;;;;;;5018833;28;20218;-73
2021/01/05 12:11:14;;;;;;;22.87;13.10;;;2.70;99.90;;;;;;5027040;28;20181;-70
2021/01/05 12:13:40;;;;;;;19.48;11.82;;;2.70;99.90;;;;;;5024759;28;20582;-71
2021/01/05 12:16:05;;;;;;;17.80;11.00;;;2.70;91.40;;;;;;5020821;28;20272;-69
2021/01/05 12:18:31;;;;;;;22.53;12.60;;;2.70;99.90;;;;;;5023565;28;20196;-71
2021/01/05 12:20:57;;;;;;;21.17;12.10;;;2.80;99.90;;;;;;5029727;28;20607;-72
2021/01/05 12:23:22;;;;;;;17.63;11.53;;;2.70;99.90;;;;;;5028330;28;20655;-73
2021/01/05 12:25:49;;;;;;;21.47;12.77;;;2.70;89.90;;;;;;5030482;28;20185;-68
2021/01/05 12:28:14;;;;;;;21.23;13.23;;;2.60;89.00;;;;;;5024063;28;20297;-68
2021/01/05 12:30:40;;;;;;;21.43;13.13;;;2.50;99.90;;;;;;5028606;28;20622;-67
2021/01/05 12:33:06;;;;;;;20.00;13.00;;;2.50;99.90;;;;;;5027142;28;20182;-69
2021/01/05 12:35:31;;;;;;;20.97;12.67;;;2.50;99.90;;;;;;5028842;28;20789;-68
2021/01/05 12:37:57;;;;;;;20.33;13.30;;;2.50;99.90;;;;;;5023261;28;20205;-68
2021/01/05 12:40:23;;;;;;;25.07;14.67;;;2.60;99.90;;;;;;5028547;28;20229;-68
2021/01/05 12:42:48;;;;;;;21.97;13.17;;;2.50;99.90;;;;;;5021808;28;20183;-67
2021/01/05 12:45:14;;;;;;;18.13;12.00;;;2.60;99.90;;;;;;5018889;28;20186;-68
2021/01/05 12:47:39;;;;;;;23.33;13.27;;;2.60;99.90;;;;;;5018741;28;20275;-68
2021/01/05 12:50:07;;;;;;;16.00;11.85;;;2.60;99.90;;;;;;5009431;28;20238;-67